createdAt,value
2023-03-18T00:02:21.100Z,10.05
2023-03-18T00:07:54.059Z,9.97
2023-03-18T00:13:20.574Z,10.08
2023-03-18T00:18:49.058Z,10.02
2023-03-18T00:24:15.035Z,9.99
2023-03-18T00:29:41.128Z,9.93
2023-03-18T00:35:09.093Z,9.92
2023-03-18T00:40:49.149Z,9.88
2023-03-18T00:46:14.102Z,9.83
2023-03-18T00:51:44.094Z,9.78
2023-03-18T00:57:10.045Z,9.76
2023-03-18T01:02:36.090Z,9.71
2023-03-18T01:08:05.120Z,9.65
2023-03-18T01:13:30.067Z,9.66
2023-03-18T01:18:55.093Z,9.59
2023-03-18T01:24:23.243Z,9.60
2023-03-18T01:29:48.074Z,9.56
2023-03-18T01:35:14.087Z,9.55
2023-03-18T01:40:47.119Z,9.50
2023-03-18T01:46:16.155Z,9.53
2023-03-18T01:51:42.133Z,9.47
2023-03-18T01:57:12.137Z,9.47
2023-03-18T02:02:37.112Z,9.42
2023-03-18T02:08:08.105Z,9.45
2023-03-18T02:13:36.106Z,9.44
2023-03-18T02:19:04.105Z,9.41
2023-03-18T02:24:41.121Z,9.35
2023-03-18T02:30:15.467Z,9.41
2023-03-18T02:35:50.195Z,9.40
2023-03-18T02:41:16.422Z,9.36
2023-03-18T02:46:52.122Z,9.32
2023-03-18T02:52:17.131Z,9.27
2023-03-18T02:57:41.144Z,9.34
2023-03-18T03:03:09.291Z,9.32
2023-03-18T03:08:34.132Z,9.26
2023-03-18T03:14:00.133Z,9.21
2023-03-18T03:19:28.136Z,9.15
2023-03-18T03:24:54.143Z,9.15
2023-03-18T03:30:19.136Z,9.07
2023-03-18T03:35:48.504Z,9.04
2023-03-18T03:41:12.206Z,8.98
2023-03-18T03:46:39.205Z,8.93
2023-03-18T03:52:06.159Z,8.87
2023-03-18T03:57:34.160Z,8.81
2023-03-18T04:03:01.285Z,8.75
2023-03-18T04:08:29.463Z,8.69
2023-03-18T04:13:54.200Z,8.69
2023-03-18T04:19:20.154Z,8.68
2023-03-18T04:24:47.269Z,8.66
2023-03-18T04:30:13.165Z,8.65
2023-03-18T04:35:52.191Z,8.66
2023-03-18T04:41:21.175Z,8.67
2023-03-18T04:46:50.259Z,8.64
2023-03-18T04:52:18.261Z,8.66
2023-03-18T04:57:46.178Z,8.66
2023-03-18T05:03:14.196Z,8.65
2023-03-18T05:08:40.385Z,8.64
2023-03-18T05:14:08.227Z,8.65
2023-03-18T05:19:36.202Z,8.67
2023-03-18T05:25:08.203Z,8.64
2023-03-18T05:30:35.217Z,8.66
2023-03-18T05:36:04.276Z,8.61
2023-03-18T05:41:39.196Z,8.59
2023-03-18T05:47:11.513Z,8.61
2023-03-18T05:52:49.214Z,8.52
2023-03-18T05:58:16.229Z,8.48
2023-03-18T06:03:50.282Z,8.39
2023-03-18T06:09:15.224Z,8.43
2023-03-18T06:14:40.243Z,8.45
2023-03-18T06:20:09.245Z,8.45
2023-03-18T06:25:36.238Z,8.46
2023-03-18T06:31:05.293Z,8.48
2023-03-18T06:36:33.576Z,8.54
2023-03-18T06:42:04.269Z,8.61
2023-03-18T06:47:38.257Z,8.71
2023-03-18T06:53:06.240Z,8.86
2023-03-18T06:58:32.246Z,9.03
2023-03-18T07:04:00.307Z,9.20
2023-03-18T07:09:27.304Z,9.44
2023-03-18T07:14:52.256Z,9.59
2023-03-18T07:20:17.286Z,9.70
2023-03-18T07:25:45.484Z,9.87
2023-03-18T07:31:12.334Z,10.01
2023-03-18T07:36:38.296Z,10.09
2023-03-18T07:42:05.592Z,10.18
2023-03-18T07:47:37.312Z,10.21
2023-03-18T07:53:05.160Z,10.27
2023-03-18T07:58:33.258Z,10.36
2023-03-18T08:03:58.356Z,10.37
2023-03-18T08:09:23.294Z,10.43
2023-03-18T08:14:50.293Z,10.56
2023-03-18T08:20:17.334Z,10.71
2023-03-18T08:25:42.285Z,10.82
2023-03-18T08:31:11.365Z,10.91
2023-03-18T08:36:36.624Z,11.00
2023-03-18T08:42:01.335Z,11.13
2023-03-18T08:47:29.312Z,11.19
2023-03-18T08:52:54.346Z,11.26
2023-03-18T08:58:19.309Z,11.27
2023-03-18T09:03:47.610Z,11.30
2023-03-18T09:09:12.340Z,11.37
2023-03-18T09:14:39.360Z,11.49
2023-03-18T09:20:06.321Z,11.77
2023-03-18T09:25:31.742Z,11.88
2023-03-18T09:30:56.403Z,12.01
2023-03-18T09:36:24.343Z,12.14
2023-03-18T09:42:02.340Z,12.20
2023-03-18T09:47:52.346Z,12.29
2023-03-18T09:53:29.578Z,12.44
2023-03-18T09:59:01.363Z,12.56
2023-03-18T10:04:31.401Z,12.79
2023-03-18T10:10:03.367Z,13.06
2023-03-18T10:15:34.719Z,13.43
2023-03-18T10:21:13.353Z,13.78
2023-03-18T10:26:48.371Z,13.88
2023-03-18T10:32:20.494Z,14.03
2023-03-18T10:37:56.419Z,14.18
2023-03-18T10:43:27.432Z,14.43
2023-03-18T10:48:56.358Z,14.87
2023-03-18T10:54:25.385Z,15.17
2023-03-18T10:59:54.371Z,15.17
2023-03-18T11:05:38.544Z,15.24
2023-03-18T11:11:04.403Z,15.41
2023-03-18T11:16:39.421Z,15.65
2023-03-18T11:22:13.402Z,15.88
2023-03-18T11:27:44.438Z,15.90
2023-03-18T11:33:14.487Z,16.11
2023-03-18T11:38:42.424Z,16.26
2023-03-18T11:44:09.430Z,16.53
2023-03-18T11:49:39.434Z,16.61
2023-03-18T11:55:19.438Z,16.67
2023-03-18T12:00:48.505Z,16.71
2023-03-18T12:06:31.425Z,16.73
2023-03-18T12:12:08.461Z,16.83
2023-03-18T12:17:44.521Z,16.89
2023-03-18T12:23:20.458Z,16.92
2023-03-18T12:28:56.506Z,16.93
2023-03-18T12:34:36.456Z,16.77
2023-03-18T12:40:19.425Z,16.77
2023-03-18T12:45:50.435Z,16.62
2023-03-18T12:51:20.467Z,16.58
2023-03-18T12:56:52.479Z,16.68
2023-03-18T13:02:36.554Z,16.90
2023-03-18T13:08:13.497Z,17.12
2023-03-18T13:13:43.540Z,17.21
2023-03-18T13:19:09.508Z,17.27
2023-03-18T13:25:05.479Z,17.30
2023-03-18T13:30:42.532Z,17.73
2023-03-18T13:36:31.460Z,18.36
2023-03-18T13:42:24.464Z,18.86
2023-03-18T13:47:54.473Z,18.79
2023-03-18T13:53:31.658Z,18.68
2023-03-18T13:59:01.546Z,18.56
2023-03-18T14:04:45.504Z,18.60
2023-03-18T14:10:27.481Z,18.36
2023-03-18T14:15:54.566Z,18.31
2023-03-18T14:21:33.520Z,18.17
2023-03-18T14:26:59.549Z,18.12
2023-03-18T14:32:45.560Z,18.01
2023-03-18T14:38:26.570Z,17.94
2023-03-18T14:43:57.537Z,17.97
2023-03-18T14:49:54.532Z,18.41
2023-03-18T14:55:28.515Z,18.69
2023-03-18T15:00:53.524Z,18.89
2023-03-18T15:06:34.546Z,18.69
2023-03-18T15:12:03.560Z,18.64
2023-03-18T15:17:32.545Z,18.59
2023-03-18T15:22:57.537Z,18.57
2023-03-18T15:28:34.566Z,18.54
2023-03-18T15:34:14.569Z,18.83
2023-03-18T15:39:48.555Z,19.21
2023-03-18T15:45:24.551Z,19.16
2023-03-18T15:50:49.569Z,19.03
2023-03-18T15:56:24.578Z,18.88
2023-03-18T16:01:53.592Z,19.26
2023-03-18T16:07:34.572Z,19.34
2023-03-18T16:13:02.607Z,19.38
2023-03-18T16:18:29.609Z,19.30
2023-03-18T16:23:54.645Z,19.26
2023-03-18T16:29:26.714Z,19.16
2023-03-18T16:34:54.650Z,18.93
2023-03-18T16:40:21.604Z,18.72
2023-03-18T16:45:46.669Z,18.69
2023-03-18T16:51:13.617Z,18.20
2023-03-18T16:56:38.847Z,17.95
2023-03-18T17:02:04.880Z,17.73
2023-03-18T17:07:40.654Z,17.48
2023-03-18T17:13:08.837Z,17.21
2023-03-18T17:18:36.655Z,16.96
2023-03-18T17:24:04.645Z,16.84
2023-03-18T17:29:38.661Z,16.71
2023-03-18T17:35:06.583Z,16.32
2023-03-18T17:40:35.641Z,15.98
2023-03-18T17:46:03.704Z,15.66
2023-03-18T17:51:34.388Z,15.51
2023-03-18T17:57:02.939Z,15.29
2023-03-18T18:02:29.766Z,15.10
2023-03-18T18:08:02.174Z,14.97
2023-03-18T18:13:32.689Z,14.86
2023-03-18T18:18:58.654Z,14.72
2023-03-18T18:24:29.718Z,14.32
2023-03-18T18:30:01.720Z,14.17
2023-03-18T18:35:28.689Z,14.05
2023-03-18T18:40:52.694Z,14.22
2023-03-18T18:46:24.751Z,14.13
2023-03-18T18:51:48.709Z,13.93
2023-03-18T18:57:13.706Z,13.76
2023-03-18T19:02:45.705Z,13.58
2023-03-18T19:08:16.678Z,13.41
2023-03-18T19:13:44.743Z,13.16
2023-03-18T19:19:12.747Z,12.99
2023-03-18T19:24:39.726Z,12.95
2023-03-18T19:30:04.716Z,12.89
2023-03-18T19:35:33.008Z,12.93
2023-03-18T19:40:59.723Z,12.89
2023-03-18T19:46:27.724Z,12.86
2023-03-18T19:51:56.732Z,12.78
2023-03-18T19:57:25.757Z,12.70
2023-03-18T20:02:51.728Z,12.61
2023-03-18T20:08:25.700Z,12.49
2023-03-18T20:13:52.780Z,12.40
2023-03-18T20:19:16.734Z,12.29
2023-03-18T20:24:44.778Z,12.21
2023-03-18T20:30:09.743Z,12.17
2023-03-18T20:35:37.752Z,12.17
2023-03-18T20:41:04.748Z,12.17
2023-03-18T20:46:29.839Z,12.11
2023-03-18T20:51:55.769Z,12.12
2023-03-18T20:57:23.756Z,12.08
2023-03-18T21:02:51.792Z,12.04
2023-03-18T21:08:23.775Z,11.97
2023-03-18T21:13:50.777Z,11.93
2023-03-18T21:19:14.766Z,11.86
2023-03-18T21:24:39.799Z,11.83
2023-03-18T21:30:08.790Z,11.81
2023-03-18T21:35:37.159Z,11.76
2023-03-18T21:41:00.823Z,11.69
2023-03-18T21:46:30.850Z,11.64
2023-03-18T21:51:54.769Z,11.58
2023-03-18T21:57:24.796Z,11.53
2023-03-18T22:02:52.844Z,11.47
2023-03-18T22:08:18.835Z,11.39
2023-03-18T22:13:42.866Z,11.34
2023-03-18T22:19:19.167Z,11.26
2023-03-18T22:24:42.802Z,11.19
2023-03-18T22:30:08.823Z,11.10
2023-03-18T22:35:39.846Z,11.04
2023-03-18T22:41:06.857Z,10.94
2023-03-18T22:46:31.940Z,10.84
2023-03-18T22:51:59.819Z,10.73
2023-03-18T22:57:33.865Z,10.67
2023-03-18T23:02:59.955Z,10.55
2023-03-18T23:08:26.910Z,10.45
2023-03-18T23:13:53.897Z,10.42
2023-03-18T23:19:11.864Z,10.38
2023-03-18T23:24:38.816Z,10.41
2023-03-18T23:30:04.830Z,10.58
2023-03-18T23:35:28.936Z,10.61
2023-03-18T23:40:56.854Z,10.55
2023-03-18T23:46:21.955Z,10.49
2023-03-18T23:51:47.924Z,10.38
2023-03-18T23:57:14.843Z,10.33
